Time;durP1;ratioP1;P1;durP2;ratioP2;P2;SDS_P1;SDS_P2;PMS_P1;PMS_P2;Temp;Humidity;BMP_temperature;BMP_pressure;BME280_temperature;BME280_humidity;BME280_pressure;Samples;Min_cycle;Max_cycle;Signal;HPM_P1;HPM_P2
2021/05/20 00:01:19;;;;;;;0.88;0.38;;;;;;;27.86;29.15;96902.25;5031231;28;20041;-31
2021/05/20 00:03:45;;;;;;;0.70;0.20;;;;;;;27.84;28.97;96904.97;5025474;28;20035;-38
2021/05/20 00:06:10;;;;;;;0.73;0.30;;;;;;;27.84;28.96;96910.22;5032951;28;20536;-36
2021/05/20 00:08:35;;;;;;;0.43;0.20;;;;;;;27.84;29.08;96912.88;5005077;28;20025;-33
2021/05/20 00:11:01;;;;;;;1.38;0.50;;;;;;;27.84;29.14;96910.22;5038166;28;20047;-33
2021/05/20 00:13:26;;;;;;;2.05;0.30;;;;;;;27.84;29.13;96910.22;5026378;28;20759;-32
2021/05/20 00:15:51;;;;;;;5.13;0.47;;;;;;;27.85;29.00;96919.00;5025009;28;20028;-33
2021/05/20 00:18:17;;;;;;;2.00;0.30;;;;;;;27.84;28.99;96909.41;5029964;28;20029;-34
2021/05/20 00:20:42;;;;;;;1.13;0.40;;;;;;;27.84;29.01;96917.31;5034298;28;20040;-34
2021/05/20 00:23:08;;;;;;;0.63;0.35;;;;;;;27.83;29.05;96913.81;5031006;28;20066;-36
2021/05/20 00:25:33;;;;;;;1.85;0.40;;;;;;;27.84;29.09;96917.31;5019648;28;20028;-31
2021/05/20 00:27:58;;;;;;;0.28;0.10;;;;;;;27.82;28.99;96922.66;5029598;28;20037;-37
2021/05/20 00:30:24;;;;;;;0.50;0.22;;;;;;;27.83;29.05;96923.50;5031316;28;20106;-29
2021/05/20 00:32:49;;;;;;;0.20;0.10;;;;;;;27.82;29.04;96921.81;5029686;28;20028;-36
2021/05/20 00:35:14;;;;;;;2.10;0.20;;;;;;;27.83;29.10;96928.75;5027781;28;20024;-31
2021/05/20 00:37:40;;;;;;;0.70;0.30;;;;;;;27.81;29.09;96923.59;5033605;28;20640;-37
2021/05/20 00:40:06;;;;;;;0.73;0.10;;;;;;;27.82;28.99;96922.66;5023226;28;20546;-34
2021/05/20 00:42:31;;;;;;;0.35;0.20;;;;;;;27.80;29.17;96919.25;5031405;28;20044;-33
2021/05/20 00:44:58;;;;;;;1.85;0.20;;;;;;;27.81;29.19;96920.97;5017405;28;20041;-34
2021/05/20 00:47:32;;;;;;;0.45;0.30;;;;;;;27.80;29.12;96916.63;5030155;28;20133;-35
2021/05/20 00:50:01;;;;;;;1.02;0.30;;;;;;;27.80;28.99;96919.25;5033958;28;20029;-31
2021/05/20 00:52:27;;;;;;;0.35;0.30;;;;;;;27.80;29.07;96918.44;5031483;28;21257;-34
2021/05/20 00:54:54;;;;;;;0.70;0.40;;;;;;;27.80;29.12;96924.53;5034198;28;20040;-32
2021/05/20 00:57:19;;;;;;;0.52;0.30;;;;;;;27.80;29.01;96921.88;5033568;28;20033;-32
2021/05/20 00:59:45;;;;;;;0.50;0.10;;;;;;;27.79;29.13;96917.56;5015392;28;20398;-31
2021/05/20 01:02:11;;;;;;;0.55;0.20;;;;;;;27.80;29.08;96923.69;5029421;28;20037;-35
2021/05/20 01:04:36;;;;;;;0.52;0.30;;;;;;;27.79;29.13;96933.38;5025958;28;20043;-36
2021/05/20 01:07:02;;;;;;;0.75;0.20;;;;;;;27.79;29.01;96928.09;5032926;28;20302;-32
2021/05/20 01:09:27;;;;;;;0.77;0.30;;;;;;;27.78;29.13;96927.28;5033216;28;20028;-36
2021/05/20 01:11:53;;;;;;;0.63;0.20;;;;;;;27.78;29.20;96934.31;5027067;28;20650;-33
2021/05/20 01:14:18;;;;;;;0.60;0.20;;;;;;;27.77;29.08;96936.09;5022674;28;20033;-33
2021/05/20 01:16:46;;;;;;;1.20;0.25;;;;;;;27.78;29.18;96939.59;5033454;28;20109;-33
2021/05/20 01:19:14;;;;;;;1.30;0.20;;;;;;;27.78;29.08;96929.03;5037116;28;20541;-36
2021/05/20 01:21:40;;;;;;;0.80;0.38;;;;;;;27.77;29.11;96932.63;5035432;28;20080;-34
2021/05/20 01:24:06;;;;;;;1.50;0.43;;;;;;;27.78;29.15;96931.69;5028695;28;20103;-37
2021/05/20 01:26:36;;;;;;;0.30;0.20;;;;;;;27.78;29.15;96936.94;5039379;28;20037;-37
2021/05/20 01:29:01;;;;;;;0.55;0.30;;;;;;;27.76;29.13;96934.41;5031383;28;20179;-34
2021/05/20 01:31:26;;;;;;;0.10;0.10;;;;;;;27.75;29.01;96937.13;5033082;28;20056;-30
2021/05/20 01:33:52;;;;;;;0.30;0.10;;;;;;;27.76;29.17;96939.66;5042429;28;20035;-34
2021/05/20 01:36:27;;;;;;;0.47;0.30;;;;;;;27.77;29.06;96943.16;5035594;28;20044;-31
2021/05/20 01:38:53;;;;;;;0.32;0.20;;;;;;;27.76;29.15;96942.31;4997147;28;20190;-30
2021/05/20 01:41:18;;;;;;;0.50;0.20;;;;;;;27.75;29.17;96947.66;5043905;28;20028;-31
2021/05/20 01:43:44;;;;;;;1.33;0.40;;;;;;;27.75;29.18;96937.13;5038751;28;20559;-30
2021/05/20 01:46:10;;;;;;;2.42;0.20;;;;;;;27.75;29.18;96939.75;5041978;28;20537;-33
2021/05/20 01:48:37;;;;;;;0.88;0.20;;;;;;;27.75;29.11;96937.13;5038658;28;20504;-29
2021/05/20 01:51:07;;;;;;;0.88;0.30;;;;;;;27.74;29.22;96938.94;5035948;28;20091;-29
2021/05/20 01:53:32;;;;;;;0.10;0.10;;;;;;;27.74;29.13;96945.97;5037003;28;20087;-34
2021/05/20 01:55:58;;;;;;;0.20;0.20;;;;;;;27.73;29.27;96944.28;5034227;28;20484;-31
2021/05/20 01:58:23;;;;;;;0.40;0.20;;;;;;;27.73;29.23;96955.63;5037113;28;20032;-33
2021/05/20 02:00:48;;;;;;;1.55;0.20;;;;;;;27.73;29.13;96952.19;5040096;28;20062;-33
2021/05/20 02:03:14;;;;;;;0.90;0.30;;;;;;;27.69;29.05;96948.84;5035338;28;20040;-30
2021/05/20 02:05:39;;;;;;;1.00;0.30;;;;;;;27.72;29.04;96963.66;5030286;28;20107;-31
2021/05/20 02:08:05;;;;;;;0.20;0.20;;;;;;;27.72;29.12;96953.13;5042876;28;20036;-33
2021/05/20 02:10:30;;;;;;;0.75;0.20;;;;;;;27.71;29.06;96952.25;5037010;28;20035;-32
2021/05/20 02:12:55;;;;;;;0.52;0.20;;;;;;;27.71;29.12;96949.63;5028636;28;20617;-35
2021/05/20 02:15:21;;;;;;;0.20;0.15;;;;;;;27.71;29.15;96951.41;5036281;28;20931;-34
2021/05/20 02:17:46;;;;;;;0.77;0.30;;;;;;;27.72;29.08;96963.66;5038169;28;20025;-39
2021/05/20 02:20:13;;;;;;;2.55;0.30;;;;;;;27.71;29.14;96965.44;5036061;28;20021;-33
2021/05/20 02:22:38;;;;;;;0.40;0.30;;;;;;;27.70;29.06;96955.84;5032817;28;20552;-37
2021/05/20 02:25:04;;;;;;;1.25;0.20;;;;;;;27.71;29.26;96967.19;5036066;28;20164;-33
2021/05/20 02:27:29;;;;;;;0.43;0.20;;;;;;;27.71;29.20;96967.19;5040871;28;20024;-32
2021/05/20 02:29:55;;;;;;;0.22;0.20;;;;;;;27.69;29.08;96963.81;5039144;28;20514;-36
2021/05/20 02:32:20;;;;;;;0.43;0.20;;;;;;;27.70;29.21;96965.50;5029066;28;20033;-33
2021/05/20 02:34:46;;;;;;;0.30;0.20;;;;;;;27.69;29.09;96964.66;5024270;28;20029;-31
2021/05/20 02:37:11;;;;;;;1.08;0.20;;;;;;;27.70;29.14;96965.50;5027456;28;20040;-32
2021/05/20 02:39:36;;;;;;;0.47;0.20;;;;;;;27.69;29.15;96961.19;5029941;28;20498;-32
2021/05/20 02:42:02;;;;;;;0.10;0.10;;;;;;;27.68;29.10;96956.88;5030803;28;20036;-35
2021/05/20 02:44:28;;;;;;;0.08;0.08;;;;;;;27.68;29.10;96962.97;5030859;28;20395;-30
2021/05/20 02:46:53;;;;;;;1.77;0.20;;;;;;;27.68;29.14;96956.88;5031206;28;20025;-32
2021/05/20 02:49:19;;;;;;;0.10;0.10;;;;;;;27.69;29.23;96967.28;5039811;28;20017;-37
2021/05/20 02:51:44;;;;;;;1.00;0.32;;;;;;;27.68;29.09;96967.41;5038729;28;20037;-33
2021/05/20 02:54:09;;;;;;;2.47;0.40;;;;;;;27.68;29.08;96968.22;5034613;28;20068;-31
2021/05/20 02:56:35;;;;;;;0.75;0.30;;;;;;;27.67;29.20;96969.16;5019443;28;20025;-38
2021/05/20 02:59:00;;;;;;;0.85;0.13;;;;;;;27.68;29.15;96967.41;5021243;28;20041;-34
2021/05/20 03:01:26;;;;;;;0.10;0.10;;;;;;;27.67;29.13;96966.53;5030225;28;20048;-33
2021/05/20 03:03:52;;;;;;;0.65;0.15;;;;;;;27.67;29.13;96970.94;5033902;28;20148;-31
2021/05/20 03:06:17;;;;;;;0.22;0.22;;;;;;;27.67;29.17;96973.56;5029433;28;20521;-34
2021/05/20 03:08:43;;;;;;;0.30;0.20;;;;;;;27.65;29.10;96971.88;5037351;28;20837;-31
2021/05/20 03:11:08;;;;;;;0.30;0.20;;;;;;;27.65;29.12;96968.44;5031214;28;20037;-38
2021/05/20 03:13:33;;;;;;;1.17;0.30;;;;;;;27.65;29.10;96969.25;5030137;28;20029;-31
2021/05/20 03:15:59;;;;;;;0.88;0.45;;;;;;;27.65;29.22;96968.44;5027611;28;20035;-31
2021/05/20 03:18:24;;;;;;;0.35;0.13;;;;;;;27.64;29.08;96962.31;5038852;28;20646;-32
2021/05/20 03:20:50;;;;;;;0.55;0.20;;;;;;;27.64;29.10;96962.31;5025674;28;20032;-34
2021/05/20 03:23:15;;;;;;;0.10;0.10;;;;;;;27.63;29.19;96968.50;5033199;28;20024;-31
2021/05/20 03:25:41;;;;;;;0.10;0.10;;;;;;;27.64;29.06;96970.19;5032646;28;20562;-35
2021/05/20 03:28:06;;;;;;;0.85;0.30;;;;;;;27.63;29.04;96971.16;5038494;28;20037;-33
2021/05/20 03:30:31;;;;;;;0.08;0.08;;;;;;;27.62;29.06;96969.44;5034032;28;20075;-34
2021/05/20 03:32:57;;;;;;;0.40;0.20;;;;;;;27.64;29.11;96974.59;5035444;28;20480;-33
2021/05/20 03:35:22;;;;;;;0.70;0.30;;;;;;;27.62;29.13;96968.59;5033183;28;20048;-36
2021/05/20 03:37:50;;;;;;;0.65;0.25;;;;;;;27.63;29.50;96973.78;5032790;28;22498;-37
2021/05/20 03:40:15;;;;;;;0.10;0.10;;;;;;;27.63;29.16;96967.66;5022243;28;20029;-34
2021/05/20 03:42:41;;;;;;;0.93;0.22;;;;;;;27.62;29.20;96964.16;5048888;28;20040;-32
2021/05/20 03:45:07;;;;;;;0.88;0.20;;;;;;;27.62;29.03;96969.44;5029100;28;20036;-33
2021/05/20 03:47:33;;;;;;;1.15;0.30;;;;;;;27.62;29.10;96969.44;5024234;28;20037;-30
2021/05/20 03:49:58;;;;;;;0.10;0.10;;;;;;;27.62;29.11;96971.22;5028691;28;20036;-31
2021/05/20 03:52:23;;;;;;;1.13;0.30;;;;;;;27.61;29.09;96980.91;5022824;28;20058;-33
2021/05/20 03:54:49;;;;;;;0.20;0.20;;;;;;;27.58;29.12;96973.13;5027348;28;20029;-32
2021/05/20 03:57:14;;;;;;;0.80;0.30;;;;;;;27.61;29.35;96983.53;5034254;28;20486;-34
2021/05/20 03:59:40;;;;;;;0.55;0.20;;;;;;;27.62;29.15;96985.22;5036247;28;20079;-34
2021/05/20 04:02:05;;;;;;;0.25;0.20;;;;;;;27.60;29.14;96984.44;5031266;28;20083;-36
2021/05/20 04:04:31;;;;;;;0.40;0.20;;;;;;;27.60;29.19;96987.06;5028553;28;20043;-34
2021/05/20 04:06:56;;;;;;;0.20;0.20;;;;;;;27.61;29.16;96986.16;5033451;28;20659;-34
2021/05/20 04:09:21;;;;;;;0.10;0.10;;;;;;;27.61;29.10;96988.78;5037717;28;20035;-32
2021/05/20 04:11:47;;;;;;;0.43;0.10;;;;;;;27.60;29.12;96992.34;5038024;28;20017;-34
2021/05/20 04:14:12;;;;;;;0.63;0.20;;;;;;;27.60;29.11;96989.72;5029843;28;20025;-30
2021/05/20 04:16:38;;;;;;;0.10;0.10;;;;;;;27.60;29.11;96992.34;5030899;28;20030;-33
2021/05/20 04:19:04;;;;;;;1.30;0.43;;;;;;;27.59;29.16;96993.28;5036078;28;20021;-32
2021/05/20 04:21:31;;;;;;;0.10;0.10;;;;;;;27.59;29.08;96998.56;5024863;28;20652;-31
2021/05/20 04:23:57;;;;;;;0.20;0.20;;;;;;;27.60;29.27;96997.59;5029475;28;20069;-36
2021/05/20 04:26:22;;;;;;;1.10;0.30;;;;;;;27.59;29.13;96989.78;5028902;28;20025;-34
2021/05/20 04:28:48;;;;;;;0.73;0.17;;;;;;;27.59;29.21;96995.06;5028630;28;20040;-30
2021/05/20 04:31:13;;;;;;;0.90;0.28;;;;;;;27.58;29.08;96998.63;5027482;28;20072;-36
2021/05/20 04:33:40;;;;;;;0.75;0.30;;;;;;;27.58;29.15;97002.09;5032008;28;20025;-31
2021/05/20 04:36:06;;;;;;;0.20;0.20;;;;;;;27.58;29.17;97003.91;5027125;28;20032;-32
2021/05/20 04:38:31;;;;;;;0.15;0.15;;;;;;;27.58;29.24;96996.81;5034991;28;20139;-34
2021/05/20 04:40:57;;;;;;;0.43;0.20;;;;;;;27.57;29.22;97003.03;5020787;28;20663;-32
2021/05/20 04:43:22;;;;;;;2.17;0.10;;;;;;;27.58;29.19;97004.72;5035592;28;20427;-34
2021/05/20 04:45:47;;;;;;;0.60;0.20;;;;;;;27.57;29.12;96997.78;5032641;28;20126;-34
2021/05/20 04:48:13;;;;;;;0.60;0.32;;;;;;;27.58;29.08;97009.16;5034844;28;20032;-33
2021/05/20 04:50:40;;;;;;;0.32;0.20;;;;;;;27.57;29.10;97003.03;5023500;28;20032;-32
2021/05/20 04:53:05;;;;;;;0.28;0.10;;;;;;;27.57;29.16;97008.31;5025546;28;20464;-38
2021/05/20 04:55:31;;;;;;;1.00;0.28;;;;;;;27.57;29.11;97012.75;5016435;28;20035;-34
2021/05/20 04:57:56;;;;;;;3.30;0.15;;;;;;;27.57;29.33;97013.56;5031520;28;20020;-31
2021/05/20 05:00:22;;;;;;;0.22;0.20;;;;;;;27.56;29.20;96996.09;5043906;28;20034;-35
2021/05/20 05:02:47;;;;;;;1.75;0.30;;;;;;;27.56;29.11;97009.25;5009762;28;20014;-31
2021/05/20 05:05:13;;;;;;;0.20;0.20;;;;;;;27.55;29.22;97012.81;4999018;28;20032;-36
2021/05/20 05:07:38;;;;;;;1.00;0.28;;;;;;;27.56;29.19;97016.28;5036597;28;20021;-33
2021/05/20 05:10:04;;;;;;;2.53;0.20;;;;;;;27.56;29.06;97021.53;5027985;28;20576;-35
2021/05/20 05:12:30;;;;;;;0.55;0.22;;;;;;;27.55;29.24;97020.72;5035923;28;20588;-34
2021/05/20 05:14:57;;;;;;;1.02;0.30;;;;;;;27.55;29.19;97015.44;5034096;28;20024;-34
2021/05/20 05:17:22;;;;;;;1.27;0.30;;;;;;;27.55;29.25;97020.72;5018383;28;20115;-35
2021/05/20 05:19:47;;;;;;;0.52;0.17;;;;;;;27.54;29.25;97019.03;5033373;28;20060;-33
2021/05/20 05:22:13;;;;;;;0.40;0.20;;;;;;;27.55;29.05;97019.84;5026198;28;20519;-35
2021/05/20 05:24:40;;;;;;;1.05;0.28;;;;;;;27.55;29.21;97025.97;5026268;28;20060;-35
2021/05/20 05:27:05;;;;;;;0.10;0.10;;;;;;;27.54;29.07;97026.94;5035450;28;20077;-32
2021/05/20 05:29:32;;;;;;;1.30;0.40;;;;;;;27.53;29.26;97033.09;5032728;28;20030;-33
2021/05/20 05:31:58;;;;;;;0.45;0.30;;;;;;;27.55;29.19;97040.91;5034089;28;20045;-32
2021/05/20 05:34:23;;;;;;;1.25;0.30;;;;;;;27.55;28.97;97040.91;5032002;28;20029;-37
2021/05/20 05:36:49;;;;;;;0.20;0.20;;;;;;;27.54;29.13;97040.09;5027665;28;20028;-32
2021/05/20 05:39:14;;;;;;;0.55;0.20;;;;;;;27.55;28.86;97041.78;5027903;28;20294;-31
2021/05/20 05:41:42;;;;;;;0.30;0.20;;;;;;;27.54;29.23;97047.97;5031399;28;20454;-36
2021/05/20 05:44:07;;;;;;;0.38;0.20;;;;;;;27.54;29.29;97045.34;5026025;28;20016;-33
2021/05/20 05:46:34;;;;;;;0.43;0.20;;;;;;;27.53;29.25;97057.66;5028708;28;20086;-37
2021/05/20 05:49:10;;;;;;;1.00;0.20;;;;;;;27.54;29.28;97055.88;5031945;28;20465;-32
2021/05/20 05:51:36;;;;;;;1.45;0.28;;;;;;;27.54;29.32;97061.16;5023688;28;20029;-30
2021/05/20 05:54:03;;;;;;;0.40;0.10;;;;;;;27.55;29.30;97064.59;5050328;28;20798;-34
2021/05/20 05:56:28;;;;;;;0.70;0.10;;;;;;;27.54;29.32;97069.03;5031420;28;20056;-35
2021/05/20 05:58:54;;;;;;;0.30;0.20;;;;;;;27.54;29.26;97066.41;5035971;28;20045;-34
2021/05/20 06:01:19;;;;;;;2.45;0.28;;;;;;;27.53;29.12;97064.69;5032029;28;20206;-31
2021/05/20 06:03:45;;;;;;;10.43;0.85;;;;;;;27.55;29.51;97067.25;5022945;28;20025;-35
2021/05/20 06:06:13;;;;;;;2.75;0.32;;;;;;;27.53;29.36;97072.59;5034249;28;20037;-32
2021/05/20 06:08:39;;;;;;;2.88;0.25;;;;;;;27.53;29.46;97076.06;5037949;28;20033;-34
2021/05/20 06:11:04;;;;;;;0.68;0.20;;;;;;;27.53;29.40;97067.31;5032447;28;20029;-35
2021/05/20 06:13:29;;;;;;;1.08;0.28;;;;;;;27.53;29.35;97075.22;5037428;28;20768;-29
2021/05/20 06:15:55;;;;;;;1.20;0.25;;;;;;;27.53;29.37;97077.84;5030502;28;20037;-35
2021/05/20 06:18:20;;;;;;;1.25;0.40;;;;;;;27.52;29.41;97079.66;5030317;28;20724;-31
2021/05/20 06:20:46;;;;;;;3.72;0.50;;;;;;;27.53;29.31;97080.47;5031779;28;20029;-32
2021/05/20 06:23:11;;;;;;;4.50;0.60;;;;;;;27.53;29.24;97081.34;5028808;28;20029;-39
2021/05/20 06:25:40;;;;;;;3.08;1.13;;;;;;;27.53;29.31;97080.47;5029953;28;20065;-31
2021/05/20 06:28:06;;;;;;;2.72;0.40;;;;;;;27.53;29.26;97080.47;5030115;28;20117;-36
2021/05/20 06:30:32;;;;;;;2.63;0.30;;;;;;;27.54;29.30;97079.56;5024614;28;20036;-33
2021/05/20 06:32:57;;;;;;;2.63;0.38;;;;;;;27.54;29.24;97087.47;5035080;28;20036;-33
2021/05/20 06:35:23;;;;;;;6.70;1.08;;;;;;;27.55;29.23;97089.16;5029173;28;20025;-34
2021/05/20 06:37:49;;;;;;;2.95;0.40;;;;;;;27.55;29.18;97093.56;5030471;28;20271;-35
2021/05/20 06:40:15;;;;;;;4.30;0.50;;;;;;;27.55;29.28;97093.56;5025981;28;20024;-33
2021/05/20 06:42:40;;;;;;;8.95;1.20;;;;;;;27.54;29.08;97092.72;5026648;28;20554;-34
2021/05/20 06:45:06;;;;;;;4.00;0.50;;;;;;;27.55;28.98;97093.56;5024370;28;20191;-32
2021/05/20 06:47:32;;;;;;;4.95;0.57;;;;;;;27.55;29.00;97089.16;5028229;28;20847;-34
2021/05/20 06:49:57;;;;;;;2.83;0.30;;;;;;;27.56;29.18;97090.84;5025778;28;20034;-31
2021/05/20 06:52:23;;;;;;;2.13;0.55;;;;;;;27.56;29.03;97096.09;5030717;28;20037;-33
2021/05/20 06:54:48;;;;;;;4.05;0.50;;;;;;;27.56;29.04;97087.34;5017706;28;20103;-33
2021/05/20 06:59:56;;;;;;;2.67;0.28;;;;;;;27.57;29.15;97091.72;5033436;28;20525;-34
2021/05/20 07:00:02;;;;;;;3.72;0.70;;;;;;;27.58;29.03;97090.75;5036861;28;20467;-34
2021/05/20 07:02:29;;;;;;;2.50;0.50;;;;;;;27.57;29.01;97089.91;5032072;28;20044;-33
2021/05/20 07:04:54;;;;;;;0.90;0.50;;;;;;;27.58;28.99;97088.97;5033980;28;20029;-35
2021/05/20 07:07:20;;;;;;;0.95;0.40;;;;;;;27.59;28.89;97097.72;5027515;28;20296;-37
2021/05/20 07:09:45;;;;;;;1.45;0.40;;;;;;;27.59;28.88;97095.94;5037397;28;20615;-30
2021/05/20 07:12:12;;;;;;;0.98;0.32;;;;;;;27.60;28.92;97097.63;5031084;28;20032;-33
2021/05/20 07:14:37;;;;;;;1.73;0.40;;;;;;;27.60;28.87;97091.50;5035648;28;20032;-34
2021/05/20 07:17:03;;;;;;;0.75;0.50;;;;;;;27.60;28.81;97100.28;5028463;28;20788;-34
2021/05/20 07:19:28;;;;;;;0.40;0.40;;;;;;;27.60;28.84;97092.38;5041039;28;20965;-33
2021/05/20 07:21:54;;;;;;;1.02;0.45;;;;;;;27.62;28.74;97095.78;5031742;28;20033;-35
2021/05/20 07:24:19;;;;;;;1.15;0.65;;;;;;;27.62;28.86;97092.31;5038379;28;20036;-32
2021/05/20 07:26:44;;;;;;;3.72;0.40;;;;;;;27.62;28.85;97101.06;5035764;28;20016;-31
2021/05/20 07:29:10;;;;;;;2.47;0.60;;;;;;;27.63;28.91;97101.91;5039120;28;20033;-31
2021/05/20 07:31:35;;;;;;;1.17;0.55;;;;;;;27.64;28.98;97103.59;5033341;28;20782;-34
2021/05/20 07:34:01;;;;;;;1.00;0.50;;;;;;;27.63;28.89;97102.78;5026346;28;20040;-34
2021/05/20 07:36:27;;;;;;;1.63;0.40;;;;;;;27.66;29.01;97112.28;5032638;28;20554;-32
2021/05/20 07:38:52;;;;;;;0.90;0.57;;;;;;;27.67;28.95;97113.13;5036153;28;20021;-32
2021/05/20 07:41:17;;;;;;;1.73;0.50;;;;;;;27.67;29.00;97113.13;5031080;28;20029;-36
2021/05/20 07:43:43;;;;;;;1.90;0.90;;;;;;;27.67;28.98;97100.81;5030426;28;20024;-33
2021/05/20 07:46:09;;;;;;;0.98;0.50;;;;;;;27.68;28.95;97104.31;5031779;28;20096;-32
2021/05/20 07:48:34;;;;;;;0.55;0.45;;;;;;;27.68;28.95;97109.56;5036333;28;20687;-36
2021/05/20 07:51:00;;;;;;;1.38;0.57;;;;;;;27.68;28.71;97109.56;5034081;28;20040;-31
2021/05/20 07:53:26;;;;;;;3.78;0.73;;;;;;;27.69;28.73;97106.00;5030034;28;20053;-33
2021/05/20 07:55:52;;;;;;;0.30;0.30;;;;;;;27.70;28.56;97112.94;5038890;28;20033;-37
2021/05/20 07:58:17;;;;;;;4.38;0.47;;;;;;;27.70;28.76;97112.94;5034403;28;20039;-36
2021/05/20 08:00:43;;;;;;;2.25;0.50;;;;;;;27.70;28.74;97118.22;5031735;28;20095;-37
2021/05/20 08:05:49;;;;;;;1.50;0.50;;;;;;;27.71;28.80;97109.38;5032816;28;20697;-34
2021/05/20 08:09:00;;;;;;;9.50;0.82;;;;;;;27.67;27.18;97107.84;5029661;28;20032;-34
2021/05/20 08:11:04;;;;;;;2.67;0.40;;;;;;;27.52;25.02;97118.28;5023735;28;20040;-32
2021/05/20 08:13:31;;;;;;;1.42;0.75;;;;;;;27.34;24.36;97112.25;5029044;28;20115;-38
2021/05/20 08:15:56;;;;;;;2.22;0.70;;;;;;;27.15;23.87;97115.84;5026525;28;20029;-34
2021/05/20 08:18:22;;;;;;;1.58;0.40;;;;;;;26.95;24.43;97111.66;5031102;28;20117;-37
2021/05/20 08:20:47;;;;;;;1.48;0.60;;;;;;;26.81;24.55;97115.00;5021176;28;20035;-38
2021/05/20 08:23:13;;;;;;;0.80;0.32;;;;;;;26.72;24.94;97113.69;5023220;28;20028;-33
2021/05/20 08:25:38;;;;;;;2.92;0.35;;;;;;;26.68;25.41;97112.16;5035162;28;20029;-36
2021/05/20 08:28:04;;;;;;;5.57;0.85;;;;;;;26.66;25.68;97116.66;5022878;28;20060;-35
2021/05/20 08:30:29;;;;;;;2.63;0.45;;;;;;;26.66;25.75;97109.59;5034176;28;20148;-31
2021/05/20 08:32:55;;;;;;;4.25;0.60;;;;;;;26.69;25.89;97105.97;5022395;28;20049;-32
2021/05/20 08:35:22;;;;;;;0.35;0.30;;;;;;;26.71;26.09;97104.09;5024109;28;20026;-33
2021/05/20 08:37:47;;;;;;;0.80;0.40;;;;;;;26.74;26.21;97103.97;5029731;28;20033;-37
2021/05/20 08:40:13;;;;;;;0.40;0.30;;;;;;;26.78;26.36;97108.13;5023428;28;20029;-33
2021/05/20 08:42:39;;;;;;;0.82;0.35;;;;;;;26.82;26.46;97107.03;5021876;28;20553;-34
2021/05/20 08:45:11;;;;;;;1.55;0.52;;;;;;;26.86;26.58;97102.47;5021535;28;20617;-35
2021/05/20 08:47:37;;;;;;;1.05;0.40;;;;;;;26.90;26.64;97090.00;5023547;28;20094;-33
2021/05/20 08:50:03;;;;;;;0.90;0.45;;;;;;;26.92;26.73;97093.41;5023092;28;20032;-35
2021/05/20 08:52:28;;;;;;;5.85;0.47;;;;;;;26.97;26.77;97083.50;5020163;28;20036;-35
2021/05/20 08:54:54;;;;;;;2.28;0.50;;;;;;;27.02;26.79;97093.78;5024646;28;20051;-36
2021/05/20 08:57:23;;;;;;;2.00;0.43;;;;;;;27.06;26.85;97092.69;5022296;28;20074;-35
2021/05/20 08:59:48;;;;;;;3.63;0.85;;;;;;;27.09;27.04;97092.53;5024342;28;20032;-39
2021/05/20 09:02:27;;;;;;;0.50;0.43;;;;;;;27.12;27.16;97098.47;5019392;28;20037;-36
2021/05/20 09:05:21;;;;;;;0.80;0.50;;;;;;;27.16;27.15;97098.31;5018691;28;20139;-34
2021/05/20 09:07:52;;;;;;;3.38;0.60;;;;;;;27.17;27.11;97095.59;5016498;28;20043;-33
2021/05/20 09:10:19;;;;;;;4.00;0.65;;;;;;;27.21;27.10;97101.53;5012911;28;20056;-33
2021/05/20 09:12:45;;;;;;;1.48;0.50;;;;;;;27.23;27.22;97097.06;5017246;28;20041;-37
2021/05/20 09:15:13;;;;;;;0.70;0.40;;;;;;;27.26;27.32;97088.97;5015384;28;20035;-33
2021/05/20 09:17:38;;;;;;;1.20;0.50;;;;;;;27.28;27.42;97102.91;5017760;28;20040;-32
2021/05/20 09:20:04;;;;;;;1.25;0.43;;;;;;;27.29;27.38;97094.06;5013157;28;20028;-37
2021/05/20 09:22:29;;;;;;;1.33;0.63;;;;;;;27.34;27.49;97101.72;5014746;28;20778;-33
2021/05/20 09:24:56;;;;;;;2.80;0.80;;;;;;;27.34;27.52;97105.19;5011449;28;20056;-32
2021/05/20 09:27:36;;;;;;;2.40;1.00;;;;;;;27.36;27.58;97098.06;5009579;28;20120;-36
2021/05/20 09:30:08;;;;;;;6.60;1.50;;;;;;;27.37;27.64;97099.78;5010862;28;20033;-36
2021/05/20 09:32:55;;;;;;;;;;;;;;;27.39;27.58;97104.94;5016717;28;20055;-34
2021/05/20 09:35:22;;;;;;;7.35;1.63;;;;;;;27.42;27.62;97104.75;5019034;28;19934;-32
2021/05/20 09:37:50;;;;;;;10.82;2.35;;;;;;;27.43;27.79;97089.84;5016761;28;20021;-34
2021/05/20 09:40:17;;;;;;;7.28;1.75;;;;;;;27.45;27.72;97090.59;5014641;28;20059;-33
2021/05/20 09:42:45;;;;;;;7.13;1.83;;;;;;;27.47;27.86;97094.00;5015758;28;20032;-33
2021/05/20 09:45:12;;;;;;;7.55;1.77;;;;;;;27.49;27.88;97090.34;5015151;28;20039;-32
2021/05/20 09:47:37;;;;;;;5.07;1.55;;;;;;;27.52;27.79;97094.59;4992662;28;20037;-34
2021/05/20 09:50:20;;;;;;;7.05;1.80;;;;;;;27.52;27.87;97095.44;5016621;28;20023;-33
2021/05/20 09:52:46;;;;;;;5.07;1.90;;;;;;;27.55;27.79;97097.06;5012027;28;20144;-33
2021/05/20 09:55:23;;;;;;;7.20;1.83;;;;;;;27.55;27.86;97094.41;5017104;28;20489;-34
2021/05/20 09:57:51;;;;;;;10.40;2.30;;;;;;;27.55;27.93;97089.16;5018426;28;20029;-37
2021/05/20 10:00:24;;;;;;;8.00;2.10;;;;;;;27.56;27.94;97090.84;5017434;28;20189;-35
2021/05/20 10:03:10;;;;;;;5.80;2.50;;;;;;;27.58;28.08;97099.50;5020432;28;20032;-30
2021/05/20 10:06:37;;;;;;;5.28;2.10;;;;;;;-148.56;100.00;61375.16;5020382;28;20476;-34
2021/05/20 10:09:16;;;;;;;9.13;2.35;;;;;;;27.58;28.70;97099.50;5013975;28;20035;-33
2021/05/20 10:11:44;;;;;;;6.60;2.30;;;;;;;27.59;28.12;97089.81;5015694;28;20075;-31
2021/05/20 10:14:09;;;;;;;5.53;1.88;;;;;;;27.60;28.18;97089.75;5020827;28;20119;-37
2021/05/20 10:17:17;;;;;;;7.82;2.35;;;;;;;-148.56;28.18;71095.75;5023778;28;21090;-35
2021/05/20 10:19:44;;;;;;;7.88;2.45;;;;;;;27.62;28.18;97085.25;5014801;28;20028;-31
2021/05/20 10:22:11;;;;;;;7.40;2.38;;;;;;;27.65;28.25;97079.00;5017984;28;20033;-33
2021/05/20 10:24:36;;;;;;;7.32;2.28;;;;;;;27.65;28.19;97085.09;5014797;28;20549;-32
2021/05/20 10:27:01;;;;;;;6.38;1.98;;;;;;;27.69;28.18;97071.78;5019404;28;20024;-34
2021/05/20 10:29:27;;;;;;;5.88;2.40;;;;;;;27.69;28.38;97066.50;4999785;28;20032;-32
2021/05/20 10:31:52;;;;;;;7.00;2.20;;;;;;;27.70;28.51;97076.09;5015872;28;20067;-32
2021/05/20 10:34:18;;;;;;;6.03;1.77;;;;;;;27.71;28.21;97078.63;5012778;28;20033;-30
2021/05/20 10:37:00;;;;;;;5.20;1.83;;;;;;;27.72;28.21;97079.50;4993616;28;20136;-32
2021/05/20 10:39:26;;;;;;;4.93;1.67;;;;;;;27.69;28.43;97077.03;5021893;28;20028;-32
2021/05/20 10:41:52;;;;;;;9.88;1.73;;;;;;;27.73;28.39;97081.19;5016728;28;20045;-34
2021/05/20 10:44:19;;;;;;;4.63;1.67;;;;;;;27.73;28.33;97091.72;5016421;28;20151;-31
2021/05/20 10:47:02;;;;;;;4.57;1.70;;;;;;;27.73;28.33;97091.72;5015118;28;20057;-30
2021/05/20 10:50:15;;;;;;;4.05;1.70;;;;;;;27.73;28.33;97091.72;5017758;28;20071;-31
2021/05/20 10:52:42;;;;;;;4.15;1.67;;;;;;;27.75;28.51;97074.03;5017076;28;20438;-31
2021/05/20 10:55:11;;;;;;;2.30;1.15;;;;;;;27.74;28.29;97077.63;5014877;28;20029;-33
2021/05/20 10:57:49;;;;;;;5.00;1.88;;;;;;;27.75;28.54;97074.91;5013258;28;20138;-33
2021/05/20 11:00:30;;;;;;;4.13;1.65;;;;;;;27.79;28.56;97075.56;5013297;28;20140;-31
2021/05/20 11:02:55;;;;;;;3.70;1.50;;;;;;;27.76;28.62;97075.72;5014074;28;20098;-29
2021/05/20 11:05:39;;;;;;;5.80;1.40;;;;;;;27.75;28.49;97074.03;5007212;28;20033;-29
2021/05/20 11:08:26;;;;;;;4.85;1.40;;;;;;;27.75;28.69;97066.13;5013763;28;20063;-33
2021/05/20 11:10:51;;;;;;;5.68;1.45;;;;;;;27.78;28.73;97052.81;5007190;28;20022;-35
2021/05/20 11:13:35;;;;;;;4.65;1.50;;;;;;;27.77;28.69;97051.13;5015628;28;20159;-33
2021/05/20 11:16:10;;;;;;;3.85;1.52;;;;;;;27.76;28.71;97042.34;5018662;28;20025;-32
2021/05/20 11:18:36;;;;;;;5.43;1.70;;;;;;;27.75;28.82;97043.31;5020889;28;20167;-32
2021/05/20 11:21:01;;;;;;;3.97;1.45;;;;;;;27.75;28.89;97038.03;5005570;28;22856;-33
2021/05/20 11:23:28;;;;;;;4.10;1.52;;;;;;;27.77;28.82;97030.06;5014785;28;20775;-32
2021/05/20 11:26:00;;;;;;;5.63;1.60;;;;;;;27.77;28.88;97040.59;5015128;28;20029;-32
2021/05/20 11:28:26;;;;;;;4.13;1.25;;;;;;;27.78;28.89;97037.00;5016371;28;20047;-34
2021/05/20 11:30:58;;;;;;;3.40;1.50;;;;;;;27.81;28.92;97036.84;5008887;28;20163;-31
2021/05/20 11:33:25;;;;;;;4.07;1.52;;;;;;;27.77;28.90;97019.53;5012988;28;20131;-32
2021/05/20 11:38:28;;;;;;;3.83;1.45;;;;;;;27.81;28.88;97015.78;5007477;28;20028;-34
2021/05/20 11:40:54;;;;;;;3.75;1.30;;;;;;;27.81;28.85;97010.50;5011836;28;20086;-29